Time;durP1;ratioP1;P1;durP2;ratioP2;P2;SDS_P1;SDS_P2;PMS_P1;PMS_P2;Temp;Humidity;BMP_temperature;BMP_pressure;BME280_temperature;BME280_humidity;BME280_pressure;Samples;Min_cycle;Max_cycle;Signal;HPM_P1;HPM_P2
2023/06/08 00:01:58;;;;;;;;;;;;;;;19.92;73.25;99502.16;4490988;31;35017;-80
2023/06/08 00:04:30;;;;;;;;;;;;;;;19.89;73.38;99492.63;4481156;31;33785;-80
2023/06/08 00:06:59;;;;;;;;;;;;;;;19.99;73.11;99492.97;4477438;31;33147;-81
2023/06/08 00:09:31;;;;;;;;;;;;;;;19.93;73.14;99494.16;4479478;31;34150;-81
2023/06/08 00:12:00;;;;;;;;;;;;;;;19.77;73.86;99488.88;4475145;31;34579;-80
2023/06/08 00:14:28;;;;;;;;;;;;;;;19.73;74.18;99484.72;4475067;31;33915;-81
2023/06/08 00:16:58;;;;;;;;;;;;;;;19.72;73.70;99492.72;4480625;31;33820;-81
2023/06/08 00:19:27;;;;;;;;;;;;;;;19.74;74.03;99489.06;4480649;31;32198;-80
2023/06/08 00:21:58;;;;;;;;;;;;;;;19.73;73.78;99483.88;4474616;31;33905;-81
2023/06/08 00:24:27;;;;;;;;;;;;;;;19.76;73.38;99481.06;4476027;31;34388;-81
2023/06/08 00:26:56;;;;;;;;;;;;;;;19.66;73.25;99475.41;4494053;31;34406;-81
2023/06/08 00:29:25;;;;;;;;;;;;;;;19.81;72.86;99476.38;4492211;31;32763;-81
2023/06/08 00:31:53;;;;;;;;;;;;;;;19.62;73.27;99473.91;4479355;31;33839;-81
2023/06/08 00:34:22;;;;;;;;;;;;;;;19.79;72.83;99471.22;4485438;31;34938;-81
2023/06/08 00:36:51;;;;;;;;;;;;;;;19.76;72.71;99467.91;4488510;31;34577;-81
2023/06/08 00:39:21;;;;;;;;;;;;;;;19.71;72.84;99467.31;4485781;31;32790;-81
2023/06/08 00:41:50;;;;;;;;;;;;;;;19.77;72.38;99470.47;4486452;31;33030;-81
2023/06/08 00:44:19;;;;;;;;;;;;;;;19.71;72.66;99472.56;4492314;31;34634;-81
2023/06/08 00:46:48;;;;;;;;;;;;;;;19.76;72.29;99475.78;4480969;31;34580;-81
2023/06/08 00:49:19;;;;;;;;;;;;;;;19.79;72.52;99478.28;4482499;32;32778;-81
2023/06/08 00:51:48;;;;;;;;;;;;;;;19.68;73.05;99476.22;4485719;31;33520;-81
2023/06/08 00:54:24;;;;;;;;;;;;;;;19.55;73.60;99481.28;4482779;31;35055;-80
2023/06/08 00:56:55;;;;;;;;;;;;;;;19.75;72.88;99484.63;4477108;31;34290;-81
2023/06/08 00:59:24;;;;;;;;;;;;;;;19.65;73.60;99486.88;4493436;31;34084;-80
2023/06/08 01:01:52;;;;;;;;;;;;;;;19.77;73.28;99482.78;4495560;31;34878;-81
2023/06/08 01:04:23;;;;;;;;;;;;;;;19.74;73.55;99482.91;4477241;32;35211;-80
2023/06/08 01:06:54;;;;;;;;;;;;;;;19.70;73.72;99478.78;4488080;31;33953;-80
2023/06/08 01:09:26;;;;;;;;;;;;;;;19.79;73.18;99486.19;4481746;31;32727;-80
2023/06/08 01:12:00;;;;;;;;;;;;;;;19.59;74.38;99493.31;4487833;31;33333;-80
2023/06/08 01:14:30;;;;;;;;;;;;;;;19.80;73.37;99486.06;4492152;31;34223;-80
2023/06/08 01:17:01;;;;;;;;;;;;;;;19.76;73.63;99486.31;4492404;31;33640;-81
2023/06/08 01:19:38;;;;;;;;;;;;;;;19.82;73.66;99489.47;4486258;31;34473;-81
2023/06/08 01:22:10;;;;;;;;;;;;;;;19.74;74.25;99486.44;4476470;31;34052;-81
2023/06/08 01:24:40;;;;;;;;;;;;;;;19.86;73.79;99492.81;4481867;31;33671;-81
2023/06/08 01:27:09;;;;;;;;;;;;;;;19.83;74.24;99491.16;4491325;31;34284;-81
2023/06/08 01:29:41;;;;;;;;;;;;;;;19.87;74.14;99485.75;4492098;31;32255;-81
2023/06/08 01:32:10;;;;;;;;;;;;;;;19.83;74.37;99490.31;4491797;31;33854;-81
2023/06/08 01:34:39;;;;;;;;;;;;;;;19.93;73.83;99493.31;4498157;31;34670;-81
2023/06/08 01:37:11;;;;;;;;;;;;;;;19.89;74.52;99484.75;4496917;31;33848;-80
2023/06/08 01:39:44;;;;;;;;;;;;;;;20.07;73.81;99487.28;4492044;31;32733;-81
2023/06/08 01:42:16;;;;;;;;;;;;;;;20.13;73.37;99484.31;4492014;31;34206;-81
2023/06/08 01:44:45;;;;;;;;;;;;;;;20.15;73.61;99487.69;4492132;31;33588;-80
2023/06/08 01:47:14;;;;;;;;;;;;;;;20.14;73.87;99486.84;4486892;31;33922;-81
2023/06/08 01:49:43;;;;;;;;;;;;;;;20.23;73.56;99498.66;4476163;32;32883;-80
2023/06/08 01:52:12;;;;;;;;;;;;;;;20.15;73.83;99495.59;4476381;32;34420;-81
2023/06/08 01:54:41;;;;;;;;;;;;;;;20.07;74.25;99493.41;4477357;31;34044;-80
2023/06/08 01:57:11;;;;;;;;;;;;;;;20.15;74.21;99496.47;4487458;31;34294;-81
2023/06/08 01:59:40;;;;;;;;;;;;;;;20.10;74.45;99485.31;4496044;31;33097;-80
2023/06/08 02:02:08;;;;;;;;;;;;;;;20.08;74.82;99486.34;4491553;31;34260;-81
2023/06/08 02:04:37;;;;;;;;;;;;;;;20.09;74.93;99490.69;4491966;31;35183;-81
2023/06/08 02:07:06;;;;;;;;;;;;;;;20.27;74.25;99483.53;4491290;31;33954;-81
2023/06/08 02:09:35;;;;;;;;;;;;;;;20.25;74.42;99479.22;4487341;31;32883;-80
2023/06/08 02:12:05;;;;;;;;;;;;;;;20.40;73.67;99488.03;4493775;31;34015;-80
2023/06/08 02:14:35;;;;;;;;;;;;;;;20.39;73.60;99481.06;4494059;31;33692;-80
2023/06/08 02:17:05;;;;;;;;;;;;;;;20.34;73.74;99482.25;4493169;31;33889;-80
2023/06/08 02:19:34;;;;;;;;;;;;;;;20.36;73.50;99475.09;4497268;31;32269;-81
2023/06/08 02:22:03;;;;;;;;;;;;;;;20.34;73.68;99480.44;4478015;32;34102;-80
2023/06/08 02:24:32;;;;;;;;;;;;;;;20.34;73.72;99483.09;4482401;31;34122;-81
2023/06/08 02:27:02;;;;;;;;;;;;;;;20.37;73.50;99475.03;4493725;31;33909;-80
2023/06/08 02:29:31;;;;;;;;;;;;;;;20.38;73.50;99476.72;4494026;31;33297;-81
2023/06/08 02:32:01;;;;;;;;;;;;;;;20.34;73.79;99471.69;4499662;31;34698;-81
2023/06/08 02:34:30;;;;;;;;;;;;;;;20.43;73.26;99477.28;4494277;31;33222;-81
2023/06/08 02:36:59;;;;;;;;;;;;;;;20.55;72.59;99474.91;4493463;31;34648;-81
2023/06/08 02:39:28;;;;;;;;;;;;;;;20.45;73.26;99477.22;4493723;31;32953;-80
2023/06/08 02:41:57;;;;;;;;;;;;;;;20.56;72.93;99473.97;4499258;31;33932;-81
2023/06/08 02:44:27;;;;;;;;;;;;;;;20.48;73.34;99470.91;4493963;31;33600;-81
2023/06/08 02:46:55;;;;;;;;;;;;;;;20.42;74.07;99467.72;4492426;31;33721;-81
2023/06/08 02:49:26;;;;;;;;;;;;;;;20.51;73.61;99465.47;4492419;31;33427;-82
2023/06/08 02:51:56;;;;;;;;;;;;;;;20.48;73.69;99465.66;4494781;31;33831;-81
2023/06/08 02:54:24;;;;;;;;;;;;;;;20.56;73.35;99471.34;4489818;31;33903;-81
2023/06/08 02:56:53;;;;;;;;;;;;;;;20.63;73.03;99475.31;4484676;31;33819;-80
2023/06/08 02:59:23;;;;;;;;;;;;;;;20.49;73.75;99472.59;4483580;31;33136;-81
2023/06/08 03:01:53;;;;;;;;;;;;;;;20.55;73.49;99467.87;4488112;31;34005;-81
2023/06/08 03:04:23;;;;;;;;;;;;;;;20.61;72.63;99470.16;4483557;31;35067;-81
2023/06/08 03:06:54;;;;;;;;;;;;;;;20.74;72.09;99472.94;4481625;31;35273;-81
2023/06/08 03:09:24;;;;;;;;;;;;;;;20.62;72.64;99465.75;4480397;31;33196;-81
2023/06/08 03:11:54;;;;;;;;;;;;;;;20.57;73.21;99462.53;4491297;31;33537;-82
2023/06/08 03:14:28;;;;;;;;;;;;;;;20.61;72.61;99467.53;4492874;31;34387;-82
2023/06/08 03:17:01;;;;;;;;;;;;;;;20.63;72.20;99472.69;4485059;31;34369;-81
2023/06/08 03:19:30;;;;;;;;;;;;;;;20.75;71.37;99477.25;4481670;31;33288;-80
2023/06/08 03:22:04;;;;;;;;;;;;;;;20.28;73.32;99470.28;4482756;31;34118;-81
2023/06/08 03:24:34;;;;;;;;;;;;;;;20.32;73.66;99476.22;4477141;31;34548;-81
2023/06/08 03:27:08;;;;;;;;;;;;;;;20.31;73.42;99472.72;4490319;31;34261;-80
2023/06/08 03:29:36;;;;;;;;;;;;;;;20.18;74.41;99479.62;4495172;31;33817;-81
2023/06/08 03:32:06;;;;;;;;;;;;;;;20.33;74.09;99472.66;4493387;31;34555;-80
2023/06/08 03:34:37;;;;;;;;;;;;;;;19.87;75.95;99470.81;4493738;31;34184;-81
2023/06/08 03:37:08;;;;;;;;;;;;;;;20.25;74.45;99475.72;4493219;31;34856;-82
2023/06/08 03:39:38;;;;;;;;;;;;;;;20.48;73.42;99482.31;4498735;31;33081;-81
2023/06/08 03:42:07;;;;;;;;;;;;;;;20.22;75.11;99482.03;4492923;31;34881;-81
2023/06/08 03:44:36;;;;;;;;;;;;;;;20.44;73.75;99479.00;4487235;31;34073;-81
2023/06/08 03:47:04;;;;;;;;;;;;;;;20.36;74.42;99486.50;4477864;32;33567;-81
2023/06/08 03:49:34;;;;;;;;;;;;;;;20.45;74.22;99480.69;4486594;31;34155;-81
2023/06/08 03:52:04;;;;;;;;;;;;;;;20.51;74.41;99483.91;4493382;31;34930;-81
2023/06/08 03:54:34;;;;;;;;;;;;;;;20.62;73.87;99487.66;4492852;31;35054;-82
2023/06/08 03:57:03;;;;;;;;;;;;;;;20.69;73.66;99484.69;4488830;31;34351;-81
2023/06/08 03:59:32;;;;;;;;;;;;;;;20.58;74.40;99482.66;4490762;31;33082;-81
2023/06/08 04:02:01;;;;;;;;;;;;;;;20.52;74.83;99483.00;4499233;31;34244;-81
2023/06/08 04:04:30;;;;;;;;;;;;;;;20.66;74.35;99483.09;4492888;31;33848;-82
2023/06/08 04:07:00;;;;;;;;;;;;;;;20.84;73.25;99478.50;4491586;31;35135;-81
2023/06/08 04:09:29;;;;;;;;;;;;;;;20.75;73.77;99482.53;4487180;31;32529;-81
2023/06/08 04:11:59;;;;;;;;;;;;;;;20.77;73.57;99480.66;4498809;31;34445;-81
2023/06/08 04:14:31;;;;;;;;;;;;;;;20.78;73.49;99479.72;4492050;31;33794;-81
2023/06/08 04:17:00;;;;;;;;;;;;;;;20.75;74.07;99477.25;4490752;31;34185;-80
2023/06/08 04:19:30;;;;;;;;;;;;;;;20.80;74.00;99477.84;4492933;31;33270;-82
2023/06/08 04:21:59;;;;;;;;;;;;;;;20.91;73.40;99481.63;4482312;31;34061;-82
2023/06/08 04:24:30;;;;;;;;;;;;;;;21.05;72.61;99484.31;4483409;31;34655;-80
2023/06/08 04:27:00;;;;;;;;;;;;;;;20.93;73.53;99490.31;4492660;31;34390;-81
2023/06/08 04:29:30;;;;;;;;;;;;;;;20.96;73.51;99487.47;4479701;31;32540;-82
2023/06/08 04:31:59;;;;;;;;;;;;;;;21.00;73.84;99486.38;4480423;31;34188;-81
2023/06/08 04:34:28;;;;;;;;;;;;;;;20.89;74.12;99485.19;4498893;31;34020;-81
2023/06/08 04:36:57;;;;;;;;;;;;;;;21.15;73.30;99480.16;4490141;31;33788;-81
2023/06/08 04:39:26;;;;;;;;;;;;;;;21.18;73.29;99484.41;4482199;31;32963;-82
2023/06/08 04:41:55;;;;;;;;;;;;;;;21.29;72.88;99482.81;4490090;31;34885;-81
2023/06/08 04:44:31;;;;;;;;;;;;;;;21.43;71.27;99487.28;4482382;31;33664;-81
2023/06/08 04:47:01;;;;;;;;;;;;;;;21.43;71.61;99491.69;4492676;31;35054;-80
2023/06/08 04:49:32;;;;;;;;;;;;;;;21.40;71.77;99492.75;4480640;31;33983;-81
2023/06/08 04:52:00;;;;;;;;;;;;;;;21.41;72.08;99493.62;4491132;31;33922;-82
2023/06/08 04:54:29;;;;;;;;;;;;;;;21.50;72.04;99501.81;4480416;31;34544;-81
2023/06/08 04:57:00;;;;;;;;;;;;;;;21.58;71.97;99500.50;4491933;31;34666;-80
2023/06/08 04:59:33;;;;;;;;;;;;;;;21.52;72.27;99493.78;4481526;31;33755;-81
2023/06/08 05:02:02;;;;;;;;;;;;;;;21.55;72.42;99498.87;4481114;31;34166;-82
2023/06/08 05:04:31;;;;;;;;;;;;;;;21.81;71.46;99493.78;4484953;31;34121;-81
2023/06/08 05:07:01;;;;;;;;;;;;;;;21.80;71.57;99500.00;4487776;31;34599;-81
2023/06/08 05:09:32;;;;;;;;;;;;;;;21.90;71.24;99509.03;4492095;31;33947;-81
2023/06/08 05:12:00;;;;;;;;;;;;;;;21.74;72.21;99509.97;4489314;31;34182;-81
2023/06/08 05:14:30;;;;;;;;;;;;;;;21.80;71.77;99506.13;4486299;31;34644;-82
2023/06/08 05:16:59;;;;;;;;;;;;;;;22.05;69.49;99501.94;4490135;31;33690;-81
2023/06/08 05:19:28;;;;;;;;;;;;;;;21.90;70.21;99498.47;4493589;31;33127;-81
2023/06/08 05:21:57;;;;;;;;;;;;;;;21.93;70.13;99509.69;4484570;31;33767;-81
2023/06/08 05:24:26;;;;;;;;;;;;;;;21.91;70.23;99506.28;4489003;31;33906;-81
2023/06/08 05:26:54;;;;;;;;;;;;;;;22.07;69.79;99502.69;4488095;31;34043;-81
2023/06/08 05:29:23;;;;;;;;;;;;;;;21.89;69.82;99502.91;4493538;31;33696;-81
2023/06/08 05:31:53;;;;;;;;;;;;;;;21.59;71.19;99510.94;4491425;31;34376;-81
2023/06/08 05:34:22;;;;;;;;;;;;;;;22.13;68.93;99503.16;4492483;31;33863;-80
2023/06/08 05:36:51;;;;;;;;;;;;;;;21.58;70.96;99514.53;4489968;31;34067;-80
2023/06/08 05:39:20;;;;;;;;;;;;;;;21.55;71.60;99511.22;4488179;31;31795;-81
2023/06/08 05:41:48;;;;;;;;;;;;;;;21.47;72.15;99515.19;4495093;31;33912;-81
2023/06/08 05:44:21;;;;;;;;;;;;;;;21.90;70.59;99509.88;4489473;31;34242;-81
2023/06/08 05:46:50;;;;;;;;;;;;;;;21.93;70.62;99512.31;4486269;31;34716;-81
2023/06/08 05:49:20;;;;;;;;;;;;;;;22.08;70.79;99505.22;4485585;31;33523;-81
2023/06/08 05:51:50;;;;;;;;;;;;;;;22.42;68.47;99504.87;4491252;31;34623;-79
2023/06/08 05:54:18;;;;;;;;;;;;;;;22.25;69.46;99511.25;4489257;31;33937;-81
2023/06/08 05:56:47;;;;;;;;;;;;;;;22.47;68.22;99505.41;4485404;31;34561;-80
2023/06/08 05:59:16;;;;;;;;;;;;;;;22.08;69.96;99507.00;4481147;31;33477;-80
2023/06/08 06:01:45;;;;;;;;;;;;;;;22.57;67.57;99504.72;4484520;31;34619;-80
2023/06/08 06:04:14;;;;;;;;;;;;;;;22.35;67.98;99497.37;4491426;31;35089;-80
2023/06/08 06:07:04;;;;;;;;;;;;;;;22.40;67.07;99505.00;4483441;31;34910;-81
2023/06/08 06:09:34;;;;;;;;;;;;;;;21.72;71.57;99509.25;4484037;31;33275;-80
2023/06/08 06:12:02;;;;;;;;;;;;;;;21.94;71.04;99500.84;4483613;31;33414;-80
2023/06/08 06:14:36;;;;;;;;;;;;;;;21.70;72.72;99510.28;4486525;31;33696;-80
2023/06/08 06:17:07;;;;;;;;;;;;;;;22.06;71.86;99507.13;4494146;31;33557;-80
2023/06/08 06:19:38;;;;;;;;;;;;;;;22.19;70.83;99504.53;4485913;31;32837;-81
2023/06/08 06:22:09;;;;;;;;;;;;;;;22.41;69.99;99506.69;4483882;31;35329;-80
2023/06/08 06:24:38;;;;;;;;;;;;;;;22.57;69.70;99507.38;4486771;31;33869;-80
2023/06/08 06:27:07;;;;;;;;;;;;;;;22.61;68.69;99507.16;4490143;31;34914;-81
2023/06/08 06:29:36;;;;;;;;;;;;;;;22.17;71.68;99506.44;4479822;31;33442;-81
2023/06/08 06:32:05;;;;;;;;;;;;;;;22.41;70.41;99506.69;4488511;31;33665;-79
2023/06/08 06:34:33;;;;;;;;;;;;;;;22.40;70.53;99498.84;4487899;31;34328;-80
2023/06/08 06:37:02;;;;;;;;;;;;;;;22.07;70.39;99495.59;4481819;31;34199;-80
2023/06/08 06:39:32;;;;;;;;;;;;;;;22.06;70.57;99501.84;4495926;31;33518;-80
2023/06/08 06:42:05;;;;;;;;;;;;;;;21.95;71.40;99494.59;4485760;31;33567;-80
2023/06/08 06:44:36;;;;;;;;;;;;;;;22.53;69.13;99495.28;4484767;31;34749;-80
2023/06/08 06:47:05;;;;;;;;;;;;;;;22.10;70.14;99492.75;4475437;31;34380;-81
2023/06/08 06:49:34;;;;;;;;;;;;;;;22.53;69.28;99497.94;4490995;31;33377;-81
2023/06/08 06:52:03;;;;;;;;;;;;;;;22.57;68.85;99494.16;4488265;31;34676;-80
2023/06/08 06:54:33;;;;;;;;;;;;;;;22.26;70.29;99505.87;4490269;31;34338;-81
2023/06/08 06:57:01;;;;;;;;;;;;;;;21.81;71.18;99506.97;4493542;31;34208;-80
2023/06/08 06:59:30;;;;;;;;;;;;;;;22.30;70.32;99512.66;4485503;31;32935;-80
2023/06/08 07:01:59;;;;;;;;;;;;;;;22.34;69.93;99500.94;4483380;32;34059;-80
2023/06/08 07:04:27;;;;;;;;;;;;;;;22.74;68.87;99506.25;4481677;31;34232;-80
2023/06/08 07:06:57;;;;;;;;;;;;;;;22.10;71.53;99507.78;4489448;31;34950;-80
2023/06/08 07:09:26;;;;;;;;;;;;;;;22.48;70.47;99500.03;4486180;31;33853;-79
2023/06/08 07:11:58;;;;;;;;;;;;;;;22.31;70.67;99500.31;4494333;31;33940;-81
2023/06/08 07:14:44;;;;;;;;;;;;;;;21.99;72.36;99503.19;4482643;31;33992;-80
2023/06/08 07:17:12;;;;;;;;;;;;;;;22.50;70.25;99506.09;4477271;31;34282;-81
2023/06/08 07:19:42;;;;;;;;;;;;;;;22.46;70.89;99501.09;4486894;31;32806;-80
2023/06/08 07:22:11;;;;;;;;;;;;;;;22.70;70.12;99504.75;4488182;31;34801;-80
2023/06/08 07:24:58;;;;;;;;;;;;;;;22.66;70.17;99502.41;4495483;31;34680;-80
2023/06/08 07:27:49;;;;;;;;;;;;;;;22.64;69.13;99501.66;4495166;31;34110;-80
2023/06/08 07:30:18;;;;;;;;;;;;;;;22.80;68.92;99505.84;4485910;31;32813;-81
2023/06/08 07:32:46;;;;;;;;;;;;;;;22.95;68.29;99509.28;4487924;31;33869;-80
2023/06/08 07:35:15;;;;;;;;;;;;;;;22.66;68.87;99505.06;4487819;31;34742;-79
2023/06/08 07:37:45;;;;;;;;;;;;;;;22.42;69.69;99503.06;4498668;31;33889;-81
2023/06/08 07:40:17;;;;;;;;;;;;;;;22.97;68.00;99502.06;4493227;31;33017;-80
2023/06/08 07:42:46;;;;;;;;;;;;;;;22.74;68.38;99511.56;4477232;31;33681;-81
2023/06/08 07:45:18;;;;;;;;;;;;;;;22.67;68.96;99504.97;4488106;31;34193;-81
2023/06/08 07:47:48;;;;;;;;;;;;;;;23.31;67.52;99507.72;4482180;31;34000;-80
2023/06/08 07:50:18;;;;;;;;;;;;;;;22.96;68.05;99507.47;4489455;31;33903;-81
2023/06/08 07:52:46;;;;;;;;;;;;;;;23.29;67.38;99508.78;4489904;31;33573;-80
2023/06/08 07:55:15;;;;;;;;;;;;;;;23.72;64.73;99498.69;4490407;31;34637;-80
2023/06/08 07:57:44;;;;;;;;;;;;;;;23.17;68.16;99511.34;4481656;31;34436;-80
2023/06/08 08:00:14;;;;;;;;;;;;;;;23.77;64.73;99503.69;4491202;31;35074;-80
2023/06/08 08:02:45;;;;;;;;;;;;;;;23.80;65.11;99506.13;4480807;31;33951;-80
2023/06/08 08:05:14;;;;;;;;;;;;;;;24.14;63.60;99503.72;4489913;31;33298;-81
2023/06/08 08:07:42;;;;;;;;;;;;;;;23.99;64.94;99498.59;4486521;31;33568;-81
2023/06/08 08:10:11;;;;;;;;;;;;;;;24.06;63.13;99494.50;4492702;31;33360;-81
2023/06/08 08:12:42;;;;;;;;;;;;;;;24.19;64.20;99498.94;4496510;31;33518;-81
2023/06/08 08:15:11;;;;;;;;;;;;;;;24.31;64.10;99497.19;4489403;31;34014;-81
2023/06/08 08:17:40;;;;;;;;;;;;;;;24.04;63.60;99498.22;4490639;31;34379;-80
2023/06/08 08:20:11;;;;;;;;;;;;;;;24.31;63.18;99505.13;4488982;31;33303;-80
2023/06/08 08:22:40;;;;;;;;;;;;;;;24.27;63.69;99501.88;4496162;31;34400;-80
2023/06/08 08:25:09;;;;;;;;;;;;;;;24.30;64.02;99503.44;4488326;31;34829;-80
2023/06/08 08:27:37;;;;;;;;;;;;;;;24.48;63.09;99496.84;4486727;31;34213;-82
2023/06/08 08:30:07;;;;;;;;;;;;;;;25.03;61.06;99503.31;4484403;31;32858;-81
2023/06/08 08:32:36;;;;;;;;;;;;;;;24.99;61.13;99496.53;4498906;31;33745;-80
2023/06/08 08:35:05;;;;;;;;;;;;;;;24.43;62.44;99497.16;4488594;31;34302;-79
2023/06/08 08:37:35;;;;;;;;;;;;;;;24.69;61.44;99494.38;4487864;31;33656;-80
2023/06/08 08:40:05;;;;;;;;;;;;;;;25.11;60.78;99492.09;4489377;31;33417;-79
2023/06/08 08:42:35;;;;;;;;;;;;;;;24.62;62.95;99499.31;4489630;31;34974;-80
2023/06/08 08:45:03;;;;;;;;;;;;;;;25.75;60.73;99494.22;4489424;31;34386;-81
2023/06/08 08:47:32;;;;;;;;;;;;;;;24.56;61.64;99490.97;4473481;31;33421;-81
2023/06/08 08:50:06;;;;;;;;;;;;;;;25.18;60.94;99496.00;4488720;31;33830;-80
2023/06/08 08:52:38;;;;;;;;;;;;;;;25.90;58.96;99489.50;4480708;31;34678;-81
2023/06/08 08:55:08;;;;;;;;;;;;;;;25.64;58.03;99504.87;4490338;31;34641;-80
2023/06/08 08:57:53;;;;;;;;;;;;;;;25.54;58.69;99502.09;4485096;31;34032;-81
2023/06/08 09:00:22;;;;;;;;;;;;;;;25.21;59.42;99500.22;4478847;31;33161;-81
2023/06/08 09:02:52;;;;;;;;;;;;;;;25.30;60.34;99504.84;4486849;31;34363;-81
2023/06/08 09:05:20;;;;;;;;;;;;;;;25.90;58.33;99497.47;4478404;31;33865;-81
2023/06/08 09:07:53;;;;;;;;;;;;;;;26.15;56.88;99493.72;4490207;31;33593;-81
2023/06/08 09:10:22;;;;;;;;;;;;;;;25.86;57.92;99494.25;4485164;31;33670;-80
2023/06/08 09:12:51;;;;;;;;;;;;;;;25.68;58.47;99495.66;4480958;31;34325;-80
2023/06/08 09:15:26;;;;;;;;;;;;;;;26.06;56.87;99492.63;4482654;31;34293;-81
2023/06/08 09:17:55;;;;;;;;;;;;;;;26.05;55.99;99484.81;4478060;31;34846;-80
2023/06/08 09:20:27;;;;;;;;;;;;;;;26.20;56.74;99482.72;4488192;31;32990;-80
2023/06/08 09:23:01;;;;;;;;;;;;;;;26.32;56.20;99476.38;4481810;31;33845;-81
2023/06/08 09:25:39;;;;;;;;;;;;;;;26.24;55.98;99482.34;4480365;31;34337;-81
2023/06/08 09:28:15;;;;;;;;;;;;;;;26.03;55.69;99476.94;4484805;31;33749;-81
2023/06/08 09:30:44;;;;;;;;;;;;;;;25.88;55.89;99468.41;4479624;31;33656;-80
2023/06/08 09:33:21;;;;;;;;;;;;;;;25.56;57.10;99473.56;4484000;31;34184;-80
2023/06/08 09:36:04;;;;;;;;;;;;;;;26.07;57.16;99470.41;4481309;31;33937;-80
2023/06/08 09:38:38;;;;;;;;;;;;;;;26.02;56.39;99467.25;4479324;31;33887;-81
2023/06/08 09:41:13;;;;;;;;;;;;;;;26.64;54.24;99471.06;4482771;31;32716;-81
2023/06/08 09:43:42;;;;;;;;;;;;;;;25.68;57.08;99471.75;4478014;31;34596;-81
2023/06/08 09:46:15;;;;;;;;;;;;;;;26.07;55.52;99461.56;4486695;31;35031;-81
2023/06/08 09:48:51;;;;;;;;;;;;;;;26.03;56.24;99463.66;4482818;31;34039;-81
2023/06/08 09:51:20;;;;;;;;;;;;;;;26.62;53.47;99457.06;4480288;31;33314;-81
2023/06/08 09:53:52;;;;;;;;;;;;;;;26.37;55.54;99459.06;4480315;31;33221;-80
2023/06/08 09:56:22;;;;;;;;;;;;;;;26.33;54.55;99468.25;4481016;31;33012;-80
2023/06/08 09:58:51;;;;;;;;;;;;;;;26.46;54.51;99460.13;4486822;31;33910;-81
2023/06/08 10:01:20;;;;;;;;;;;;;;;26.39;55.36;99459.78;4482982;31;33012;-81
2023/06/08 10:03:49;;;;;;;;;;;;;;;26.35;55.47;99452.19;4477860;31;34480;-80
2023/06/08 10:06:18;;;;;;;;;;;;;;;26.68;55.33;99451.22;4478317;31;33587;-80
2023/06/08 10:08:47;;;;;;;;;;;;;;;26.91;53.51;99449.25;4494471;31;33105;-80
2023/06/08 10:11:17;;;;;;;;;;;;;;;26.06;55.79;99443.94;4484691;31;33311;-81
2023/06/08 10:13:46;;;;;;;;;;;;;;;26.74;52.59;99445.37;4477249;31;34903;-80
2023/06/08 10:16:15;;;;;;;;;;;;;;;27.00;52.88;99439.66;4482564;31;33891;-81
2023/06/08 10:18:45;;;;;;;;;;;;;;;27.11;52.68;99430.75;4484814;31;33497;-81
2023/06/08 10:21:13;;;;;;;;;;;;;;;27.25;53.44;99425.09;4480973;31;33552;-81
2023/06/08 10:23:43;;;;;;;;;;;;;;;27.00;53.10;99421.03;4481137;31;34942;-80
2023/06/08 10:26:13;;;;;;;;;;;;;;;27.32;52.12;99423.59;4484098;31;33231;-81
2023/06/08 10:28:57;;;;;;;;;;;;;;;27.40;52.97;99425.56;4480620;31;34723;-81
2023/06/08 10:31:48;;;;;;;;;;;;;;;27.73;51.86;99420.91;4485908;31;33774;-81
2023/06/08 10:34:17;;;;;;;;;;;;;;;27.41;50.80;99420.13;4485169;31;34195;-81
2023/06/08 10:36:47;;;;;;;;;;;;;;;27.31;52.35;99415.75;4489234;31;34703;-81
2023/06/08 10:39:16;;;;;;;;;;;;;;;27.73;51.22;99420.91;4487884;31;33727;-80
2023/06/08 10:41:46;;;;;;;;;;;;;;;27.69;52.03;99416.84;4478788;31;33499;-81
2023/06/08 10:44:25;;;;;;;;;;;;;;;27.61;52.20;99407.69;4490523;31;33481;-80
2023/06/08 10:46:57;;;;;;;;;;;;;;;27.58;51.16;99404.47;4489969;31;34028;-81
2023/06/08 10:49:29;;;;;;;;;;;;;;;27.53;51.58;99401.38;4482297;31;35141;-81
2023/06/08 10:51:59;;;;;;;;;;;;;;;27.83;50.12;99400.47;4482446;31;33114;-81
2023/06/08 10:54:28;;;;;;;;;;;;;;;27.40;50.52;99396.28;4488209;31;34611;-81
2023/06/08 10:56:57;;;;;;;;;;;;;;;27.74;50.84;99394.16;4491986;31;34748;-81
2023/06/08 10:59:45;;;;;;;;;;;;;;;27.78;51.60;99390.19;4479350;31;34015;-81
2023/06/08 11:02:15;;;;;;;;;;;;;;;27.74;50.93;99390.59;4482110;31;33158;-80
2023/06/08 11:04:44;;;;;;;;;;;;;;;27.74;51.61;99388.81;4482364;31;33576;-80
2023/06/08 11:07:34;;;;;;;;;;;;;;;27.86;51.73;99389.56;4481167;31;33764;-81
2023/06/08 11:10:03;;;;;;;;;;;;;;;27.82;49.57;99399.66;4491354;31;34822;-80
2023/06/08 11:12:32;;;;;;;;;;;;;;;27.87;49.67;99397.41;4484393;31;32528;-79
2023/06/08 11:15:00;;;;;;;;;;;;;;;27.81;49.87;99392.63;4487273;31;33666;-80
2023/06/08 11:17:31;;;;;;;;;;;;;;;27.70;49.88;99389.22;4486190;31;34024;-81
2023/06/08 11:20:03;;;;;;;;;;;;;;;27.81;50.45;99392.63;4486524;31;34102;-80
2023/06/08 11:22:33;;;;;;;;;;;;;;;27.57;50.50;99385.00;4483863;31;33166;-80
2023/06/08 11:25:02;;;;;;;;;;;;;;;27.42;50.94;99389.00;4477277;31;33815;-79
2023/06/08 11:27:30;;;;;;;;;;;;;;;27.01;52.20;99382.75;4480532;31;34342;-80
2023/06/08 11:30:00;;;;;;;;;;;;;;;27.18;51.17;99384.84;4479040;31;33575;-80
2023/06/08 11:32:31;;;;;;;;;;;;;;;27.18;50.97;99390.16;4491685;31;33226;-82
2023/06/08 11:35:00;;;;;;;;;;;;;;;27.06;50.51;99387.69;4483082;31;32297;-80
2023/06/08 11:37:33;;;;;;;;;;;;;;;27.12;51.44;99388.00;4482673;31;33896;-81
2023/06/08 11:40:03;;;;;;;;;;;;;;;27.05;51.85;99384.19;4483894;31;34413;-80
2023/06/08 11:42:31;;;;;;;;;;;;;;;27.30;51.31;99387.41;4483015;31;32112;-81
2023/06/08 11:45:00;;;;;;;;;;;;;;;27.29;50.45;99375.91;4487872;31;34971;-80
2023/06/08 11:47:32;;;;;;;;;;;;;;;27.07;49.08;99376.91;4481207;31;33272;-80
2023/06/08 11:50:01;;;;;;;;;;;;;;;27.66;47.14;99376.16;4480284;31;36909;-81
2023/06/08 11:52:33;;;;;;;;;;;;;;;27.69;46.68;99361.72;4480007;31;33670;-81
2023/06/08 11:55:07;;;;;;;;;;;;;;;27.79;47.65;99361.75;4490110;31;34053;-81
2023/06/08 11:57:40;;;;;;;;;;;;;;;27.97;46.96;99360.09;4479894;31;33916;-80
2023/06/08 12:00:09;;;;;;;;;;;;;;;27.91;47.75;99363.34;4480195;31;34142;-81
2023/06/08 12:02:40;;;;;;;;;;;;;;;27.82;46.20;99357.00;4481614;31;32937;-80
2023/06/08 12:05:14;;;;;;;;;;;;;;;27.82;45.56;99346.34;4482268;31;34128;-80
2023/06/08 12:07:53;;;;;;;;;;;;;;;27.98;44.89;99351.13;4486497;31;33647;-80
2023/06/08 12:10:24;;;;;;;;;;;;;;;28.11;46.37;99344.66;4480797;31;32833;-80
2023/06/08 12:12:53;;;;;;;;;;;;;;;28.13;46.22;99343.53;4484385;31;32674;-81
2023/06/08 12:15:22;;;;;;;;;;;;;;;27.97;46.77;99336.09;4479270;31;33724;-80
2023/06/08 12:17:52;;;;;;;;;;;;;;;28.18;47.13;99349.28;4481846;31;33912;-81
2023/06/08 12:20:21;;;;;;;;;;;;;;;28.17;46.64;99342.25;4486465;31;34025;-80
2023/06/08 12:22:51;;;;;;;;;;;;;;;28.49;44.01;99338.47;4482748;31;32887;-80
2023/06/08 12:25:20;;;;;;;;;;;;;;;28.31;45.06;99338.31;4477137;31;33651;-80
2023/06/08 12:27:49;;;;;;;;;;;;;;;27.93;46.12;99328.50;4493578;31;34371;-82
2023/06/08 12:30:18;;;;;;;;;;;;;;;28.36;44.90;99330.72;4488454;31;35014;-81
2023/06/08 12:32:46;;;;;;;;;;;;;;;28.24;46.01;99334.53;4475510;31;34037;-81
2023/06/08 12:35:17;;;;;;;;;;;;;;;28.66;44.89;99337.72;4474265;31;35013;-81
2023/06/08 12:37:50;;;;;;;;;;;;;;;27.84;45.35;99335.53;4439578;31;1308750;-81
2023/06/08 12:40:20;;;;;;;;;;;;;;;28.13;45.52;99335.53;4483737;31;33447;-81
2023/06/08 12:42:50;;;;;;;;;;;;;;;28.28;44.92;99322.63;4491268;31;32821;-80
2023/06/08 12:45:19;;;;;;;;;;;;;;;28.38;45.35;99319.94;4480899;31;33568;-80
2023/06/08 12:47:48;;;;;;;;;;;;;;;28.59;44.27;99319.78;4475994;31;34898;-81
2023/06/08 12:50:19;;;;;;;;;;;;;;;28.60;43.72;99327.63;4470886;31;33733;-82
2023/06/08 12:52:48;;;;;;;;;;;;;;;28.66;43.71;99320.88;4479014;31;34071;-81
2023/06/08 12:55:17;;;;;;;;;;;;;;;28.79;44.64;99323.22;4474843;31;33507;-81
2023/06/08 12:57:47;;;;;;;;;;;;;;;28.70;43.42;99319.59;4477765;31;34051;-81
2023/06/08 13:00:21;;;;;;;;;;;;;;;28.50;44.11;99313.47;4480246;31;34299;-81
2023/06/08 13:02:51;;;;;;;;;;;;;;;27.96;44.61;99321.09;4487094;31;32784;-80
2023/06/08 13:05:22;;;;;;;;;;;;;;;28.07;45.36;99317.44;4493140;31;34104;-81